sensor_id;sensor_type;location;lat;lon;timestamp;P1;durP1;ratioP1;P2;durP2;ratioP2
61291;SDS011;47165;42.664;23.368;2023-11-18T00:01:25;0.50;;;0.50;;
61291;SDS011;47165;42.664;23.368;2023-11-18T00:03:55;0.13;;;0.13;;
61291;SDS011;47165;42.664;23.368;2023-11-18T00:06:21;0.50;;;0.50;;
61291;SDS011;47165;42.664;23.368;2023-11-18T00:08:46;0.40;;;0.40;;
61291;SDS011;47165;42.664;23.368;2023-11-18T00:11:11;0.30;;;0.30;;
61291;SDS011;47165;42.664;23.368;2023-11-18T00:13:38;0.20;;;0.20;;
61291;SDS011;47165;42.664;23.368;2023-11-18T00:16:05;0.25;;;0.25;;
61291;SDS011;47165;42.664;23.368;2023-11-18T00:18:31;1.42;;;0.70;;
61291;SDS011;47165;42.664;23.368;2023-11-18T00:20:57;0.65;;;0.65;;
61291;SDS011;47165;42.664;23.368;2023-11-18T00:23:24;0.63;;;0.47;;
61291;SDS011;47165;42.664;23.368;2023-11-18T00:25:51;0.70;;;0.50;;
61291;SDS011;47165;42.664;23.368;2023-11-18T00:28:18;0.50;;;0.50;;
61291;SDS011;47165;42.664;23.368;2023-11-18T00:30:44;0.55;;;0.50;;
61291;SDS011;47165;42.664;23.368;2023-11-18T00:33:10;0.30;;;0.30;;
61291;SDS011;47165;42.664;23.368;2023-11-18T00:35:36;0.35;;;0.35;;
61291;SDS011;47165;42.664;23.368;2023-11-18T00:38:02;0.20;;;0.20;;
61291;SDS011;47165;42.664;23.368;2023-11-18T00:40:28;0.30;;;0.30;;
61291;SDS011;47165;42.664;23.368;2023-11-18T00:42:55;0.57;;;0.43;;
61291;SDS011;47165;42.664;23.368;2023-11-18T00:45:21;0.60;;;0.50;;
61291;SDS011;47165;42.664;23.368;2023-11-18T00:47:47;0.40;;;0.40;;
61291;SDS011;47165;42.664;23.368;2023-11-18T00:50:13;0.68;;;0.57;;
61291;SDS011;47165;42.664;23.368;2023-11-18T00:52:39;1.95;;;1.58;;
61291;SDS011;47165;42.664;23.368;2023-11-18T00:55:09;0.55;;;0.55;;
61291;SDS011;47165;42.664;23.368;2023-11-18T00:57:38;0.60;;;0.60;;
61291;SDS011;47165;42.664;23.368;2023-11-18T01:00:07;1.23;;;0.73;;
61291;SDS011;47165;42.664;23.368;2023-11-18T01:02:39;0.40;;;0.40;;
61291;SDS011;47165;42.664;23.368;2023-11-18T01:05:05;0.00;;;0.00;;
61291;SDS011;47165;42.664;23.368;2023-11-18T01:07:32;0.57;;;0.55;;
61291;SDS011;47165;42.664;23.368;2023-11-18T01:09:58;0.47;;;0.47;;
61291;SDS011;47165;42.664;23.368;2023-11-18T01:12:23;1.15;;;0.93;;
61291;SDS011;47165;42.664;23.368;2023-11-18T01:14:48;0.45;;;0.43;;
61291;SDS011;47165;42.664;23.368;2023-11-18T01:17:14;0.73;;;0.73;;
61291;SDS011;47165;42.664;23.368;2023-11-18T01:19:40;1.40;;;1.08;;
61291;SDS011;47165;42.664;23.368;2023-11-18T01:22:05;0.60;;;0.60;;
61291;SDS011;47165;42.664;23.368;2023-11-18T01:24:31;1.75;;;1.30;;
61291;SDS011;47165;42.664;23.368;2023-11-18T01:26:59;0.88;;;0.88;;
61291;SDS011;47165;42.664;23.368;2023-11-18T01:29:25;1.65;;;1.45;;
61291;SDS011;47165;42.664;23.368;2023-11-18T01:31:52;0.77;;;0.77;;
61291;SDS011;47165;42.664;23.368;2023-11-18T01:34:18;0.93;;;0.88;;
61291;SDS011;47165;42.664;23.368;2023-11-18T01:36:46;0.77;;;0.77;;
61291;SDS011;47165;42.664;23.368;2023-11-18T01:39:14;0.57;;;0.32;;
61291;SDS011;47165;42.664;23.368;2023-11-18T01:41:40;2.40;;;1.20;;
61291;SDS011;47165;42.664;23.368;2023-11-18T01:44:06;0.65;;;0.65;;
61291;SDS011;47165;42.664;23.368;2023-11-18T01:46:33;1.50;;;1.40;;
61291;SDS011;47165;42.664;23.368;2023-11-18T01:49:01;0.95;;;0.88;;
61291;SDS011;47165;42.664;23.368;2023-11-18T01:51:30;1.75;;;1.33;;
61291;SDS011;47165;42.664;23.368;2023-11-18T01:53:56;1.23;;;1.13;;
61291;SDS011;47165;42.664;23.368;2023-11-18T01:56:25;0.77;;;0.73;;
61291;SDS011;47165;42.664;23.368;2023-11-18T01:58:52;2.63;;;1.33;;
61291;SDS011;47165;42.664;23.368;2023-11-18T02:01:18;0.38;;;0.38;;
61291;SDS011;47165;42.664;23.368;2023-11-18T02:03:44;0.82;;;0.80;;
61291;SDS011;47165;42.664;23.368;2023-11-18T02:06:10;1.25;;;1.00;;
61291;SDS011;47165;42.664;23.368;2023-11-18T02:08:36;0.98;;;0.88;;
61291;SDS011;47165;42.664;23.368;2023-11-18T02:11:09;0.47;;;0.43;;
61291;SDS011;47165;42.664;23.368;2023-11-18T02:13:40;1.38;;;1.27;;
61291;SDS011;47165;42.664;23.368;2023-11-18T02:16:13;1.30;;;0.57;;
61291;SDS011;47165;42.664;23.368;2023-11-18T02:18:41;1.38;;;1.13;;
61291;SDS011;47165;42.664;23.368;2023-11-18T02:21:08;0.90;;;0.90;;
61291;SDS011;47165;42.664;23.368;2023-11-18T02:23:36;1.35;;;1.10;;
61291;SDS011;47165;42.664;23.368;2023-11-18T02:26:02;1.85;;;1.35;;
61291;SDS011;47165;42.664;23.368;2023-11-18T02:28:28;1.08;;;0.98;;
61291;SDS011;47165;42.664;23.368;2023-11-18T02:31:02;0.90;;;0.90;;
61291;SDS011;47165;42.664;23.368;2023-11-18T02:33:35;0.65;;;0.65;;
61291;SDS011;47165;42.664;23.368;2023-11-18T02:36:26;2.33;;;1.40;;
61291;SDS011;47165;42.664;23.368;2023-11-18T02:39:11;1.65;;;1.52;;
61291;SDS011;47165;42.664;23.368;2023-11-18T02:41:42;0.93;;;0.90;;
61291;SDS011;47165;42.664;23.368;2023-11-18T02:44:12;1.75;;;1.65;;
61291;SDS011;47165;42.664;23.368;2023-11-18T02:46:43;2.35;;;1.40;;
61291;SDS011;47165;42.664;23.368;2023-11-18T02:49:09;1.48;;;1.38;;
61291;SDS011;47165;42.664;23.368;2023-11-18T02:51:36;2.17;;;1.70;;
61291;SDS011;47165;42.664;23.368;2023-11-18T02:54:04;3.80;;;1.60;;
61291;SDS011;47165;42.664;23.368;2023-11-18T02:56:39;1.25;;;1.13;;
61291;SDS011;47165;42.664;23.368;2023-11-18T02:59:05;2.17;;;1.90;;
61291;SDS011;47165;42.664;23.368;2023-11-18T03:01:31;1.83;;;1.35;;
61291;SDS011;47165;42.664;23.368;2023-11-18T03:03:59;1.17;;;1.08;;
61291;SDS011;47165;42.664;23.368;2023-11-18T03:06:24;0.70;;;0.68;;
61291;SDS011;47165;42.664;23.368;2023-11-18T03:08:50;2.58;;;2.35;;
61291;SDS011;47165;42.664;23.368;2023-11-18T03:11:18;2.28;;;1.42;;
61291;SDS011;47165;42.664;23.368;2023-11-18T03:13:45;2.30;;;2.10;;
61291;SDS011;47165;42.664;23.368;2023-11-18T03:16:11;5.93;;;1.75;;
61291;SDS011;47165;42.664;23.368;2023-11-18T03:18:41;2.78;;;1.92;;
61291;SDS011;47165;42.664;23.368;2023-11-18T03:21:14;2.53;;;2.03;;
61291;SDS011;47165;42.664;23.368;2023-11-18T03:23:40;1.58;;;1.48;;
61291;SDS011;47165;42.664;23.368;2023-11-18T03:26:09;2.33;;;0.88;;
61291;SDS011;47165;42.664;23.368;2023-11-18T03:28:38;2.55;;;2.08;;
61291;SDS011;47165;42.664;23.368;2023-11-18T03:31:05;2.47;;;2.20;;
61291;SDS011;47165;42.664;23.368;2023-11-18T03:33:31;3.70;;;2.35;;
61291;SDS011;47165;42.664;23.368;2023-11-18T03:35:57;2.47;;;1.90;;
61291;SDS011;47165;42.664;23.368;2023-11-18T03:38:23;1.80;;;1.65;;
61291;SDS011;47165;42.664;23.368;2023-11-18T03:40:49;3.42;;;2.72;;
61291;SDS011;47165;42.664;23.368;2023-11-18T03:43:15;2.67;;;1.83;;
61291;SDS011;47165;42.664;23.368;2023-11-18T03:45:41;1.98;;;1.88;;
61291;SDS011;47165;42.664;23.368;2023-11-18T03:48:07;2.13;;;1.92;;
61291;SDS011;47165;42.664;23.368;2023-11-18T03:50:33;2.97;;;1.83;;
61291;SDS011;47165;42.664;23.368;2023-11-18T03:52:59;3.70;;;1.75;;
61291;SDS011;47165;42.664;23.368;2023-11-18T03:55:26;3.13;;;2.50;;
61291;SDS011;47165;42.664;23.368;2023-11-18T03:57:52;3.90;;;2.33;;
61291;SDS011;47165;42.664;23.368;2023-11-18T04:00:18;4.07;;;1.98;;
61291;SDS011;47165;42.664;23.368;2023-11-18T04:02:45;1.73;;;0.93;;
61291;SDS011;47165;42.664;23.368;2023-11-18T04:05:11;2.25;;;1.95;;
61291;SDS011;47165;42.664;23.368;2023-11-18T04:07:37;3.13;;;2.25;;
61291;SDS011;47165;42.664;23.368;2023-11-18T04:10:07;2.75;;;1.98;;
61291;SDS011;47165;42.664;23.368;2023-11-18T04:12:35;2.17;;;1.98;;
61291;SDS011;47165;42.664;23.368;2023-11-18T04:15:01;3.35;;;2.90;;
61291;SDS011;47165;42.664;23.368;2023-11-18T04:17:26;1.35;;;1.25;;
61291;SDS011;47165;42.664;23.368;2023-11-18T04:19:53;3.17;;;2.90;;
61291;SDS011;47165;42.664;23.368;2023-11-18T04:22:20;2.20;;;1.55;;
61291;SDS011;47165;42.664;23.368;2023-11-18T04:24:47;2.67;;;1.17;;
61291;SDS011;47165;42.664;23.368;2023-11-18T04:27:13;4.07;;;2.90;;
61291;SDS011;47165;42.664;23.368;2023-11-18T04:29:38;2.90;;;2.70;;
61291;SDS011;47165;42.664;23.368;2023-11-18T04:32:05;3.08;;;2.45;;
61291;SDS011;47165;42.664;23.368;2023-11-18T04:34:36;2.67;;;2.13;;
61291;SDS011;47165;42.664;23.368;2023-11-18T04:37:02;4.05;;;2.90;;
61291;SDS011;47165;42.664;23.368;2023-11-18T04:39:31;2.35;;;1.63;;
61291;SDS011;47165;42.664;23.368;2023-11-18T04:41:57;2.30;;;1.70;;
61291;SDS011;47165;42.664;23.368;2023-11-18T04:44:23;2.53;;;2.33;;
61291;SDS011;47165;42.664;23.368;2023-11-18T04:46:48;1.90;;;1.52;;
61291;SDS011;47165;42.664;23.368;2023-11-18T04:49:15;2.10;;;1.88;;
61291;SDS011;47165;42.664;23.368;2023-11-18T04:51:41;1.38;;;1.15;;
61291;SDS011;47165;42.664;23.368;2023-11-18T04:54:06;1.73;;;1.60;;
61291;SDS011;47165;42.664;23.368;2023-11-18T04:56:33;3.33;;;2.53;;
61291;SDS011;47165;42.664;23.368;2023-11-18T04:59:03;2.65;;;2.28;;
61291;SDS011;47165;42.664;23.368;2023-11-18T05:01:32;3.35;;;2.40;;
61291;SDS011;47165;42.664;23.368;2023-11-18T05:03:58;1.33;;;1.20;;
61291;SDS011;47165;42.664;23.368;2023-11-18T05:06:24;3.63;;;2.17;;
61291;SDS011;47165;42.664;23.368;2023-11-18T05:08:51;2.58;;;1.95;;
61291;SDS011;47165;42.664;23.368;2023-11-18T05:11:17;1.45;;;1.35;;
61291;SDS011;47165;42.664;23.368;2023-11-18T05:13:44;3.13;;;1.85;;
61291;SDS011;47165;42.664;23.368;2023-11-18T05:16:10;2.45;;;2.17;;
61291;SDS011;47165;42.664;23.368;2023-11-18T05:18:39;1.65;;;1.30;;
61291;SDS011;47165;42.664;23.368;2023-11-18T05:21:06;2.40;;;1.88;;
61291;SDS011;47165;42.664;23.368;2023-11-18T05:23:35;2.45;;;1.83;;
61291;SDS011;47165;42.664;23.368;2023-11-18T05:26:01;1.55;;;1.45;;
61291;SDS011;47165;42.664;23.368;2023-11-18T05:28:30;2.00;;;1.33;;
61291;SDS011;47165;42.664;23.368;2023-11-18T05:30:57;2.20;;;1.88;;
61291;SDS011;47165;42.664;23.368;2023-11-18T05:33:36;2.58;;;1.65;;
61291;SDS011;47165;42.664;23.368;2023-11-18T05:36:10;2.45;;;1.73;;
61291;SDS011;47165;42.664;23.368;2023-11-18T05:38:42;2.85;;;1.65;;
61291;SDS011;47165;42.664;23.368;2023-11-18T05:41:14;1.35;;;1.20;;
61291;SDS011;47165;42.664;23.368;2023-11-18T05:43:48;1.42;;;1.33;;
61291;SDS011;47165;42.664;23.368;2023-11-18T05:46:16;2.30;;;1.83;;
61291;SDS011;47165;42.664;23.368;2023-11-18T05:48:50;1.20;;;0.75;;
61291;SDS011;47165;42.664;23.368;2023-11-18T05:51:19;2.05;;;1.67;;
61291;SDS011;47165;42.664;23.368;2023-11-18T05:53:46;1.88;;;1.45;;
61291;SDS011;47165;42.664;23.368;2023-11-18T05:56:14;1.70;;;1.60;;
61291;SDS011;47165;42.664;23.368;2023-11-18T05:58:43;1.40;;;1.30;;
61291;SDS011;47165;42.664;23.368;2023-11-18T06:01:09;2.92;;;1.35;;
61291;SDS011;47165;42.664;23.368;2023-11-18T06:03:37;0.70;;;0.65;;
61291;SDS011;47165;42.664;23.368;2023-11-18T06:06:05;1.10;;;1.00;;
61291;SDS011;47165;42.664;23.368;2023-11-18T06:08:39;1.90;;;1.15;;
61291;SDS011;47165;42.664;23.368;2023-11-18T06:11:06;1.05;;;0.93;;
61291;SDS011;47165;42.664;23.368;2023-11-18T06:13:39;1.10;;;1.00;;
61291;SDS011;47165;42.664;23.368;2023-11-18T06:16:09;1.85;;;0.95;;
61291;SDS011;47165;42.664;23.368;2023-11-18T06:18:39;1.55;;;1.02;;
61291;SDS011;47165;42.664;23.368;2023-11-18T06:21:06;1.48;;;1.08;;
61291;SDS011;47165;42.664;23.368;2023-11-18T06:23:32;0.50;;;0.50;;
61291;SDS011;47165;42.664;23.368;2023-11-18T06:26:02;0.82;;;0.82;;
61291;SDS011;47165;42.664;23.368;2023-11-18T06:28:29;0.77;;;0.77;;
61291;SDS011;47165;42.664;23.368;2023-11-18T06:30:55;1.75;;;1.15;;
61291;SDS011;47165;42.664;23.368;2023-11-18T06:33:21;1.10;;;1.00;;
61291;SDS011;47165;42.664;23.368;2023-11-18T06:35:53;1.15;;;0.60;;
61291;SDS011;47165;42.664;23.368;2023-11-18T06:38:20;0.32;;;0.25;;
61291;SDS011;47165;42.664;23.368;2023-11-18T06:40:47;1.63;;;0.57;;
61291;SDS011;47165;42.664;23.368;2023-11-18T06:43:17;1.58;;;1.00;;
61291;SDS011;47165;42.664;23.368;2023-11-18T06:45:44;1.75;;;1.23;;
61291;SDS011;47165;42.664;23.368;2023-11-18T06:48:10;0.85;;;0.52;;
61291;SDS011;47165;42.664;23.368;2023-11-18T06:50:36;1.25;;;0.80;;
61291;SDS011;47165;42.664;23.368;2023-11-18T06:53:01;0.55;;;0.50;;
61291;SDS011;47165;42.664;23.368;2023-11-18T06:55:27;1.33;;;0.93;;
61291;SDS011;47165;42.664;23.368;2023-11-18T06:57:52;0.75;;;0.75;;
61291;SDS011;47165;42.664;23.368;2023-11-18T07:00:20;1.50;;;0.63;;
61291;SDS011;47165;42.664;23.368;2023-11-18T07:02:47;2.35;;;0.52;;
61291;SDS011;47165;42.664;23.368;2023-11-18T07:05:12;2.15;;;0.70;;
61291;SDS011;47165;42.664;23.368;2023-11-18T07:07:40;1.00;;;0.80;;
61291;SDS011;47165;42.664;23.368;2023-11-18T07:10:06;0.63;;;0.52;;
61291;SDS011;47165;42.664;23.368;2023-11-18T07:12:35;0.60;;;0.60;;
61291;SDS011;47165;42.664;23.368;2023-11-18T07:15:03;2.47;;;2.20;;
61291;SDS011;47165;42.664;23.368;2023-11-18T07:17:29;2.75;;;0.93;;
61291;SDS011;47165;42.664;23.368;2023-11-18T07:19:55;1.25;;;0.60;;
61291;SDS011;47165;42.664;23.368;2023-11-18T07:22:21;0.70;;;0.70;;
61291;SDS011;47165;42.664;23.368;2023-11-18T07:24:47;0.77;;;0.70;;
61291;SDS011;47165;42.664;23.368;2023-11-18T07:27:12;1.08;;;0.70;;
61291;SDS011;47165;42.664;23.368;2023-11-18T07:29:38;1.85;;;0.80;;
61291;SDS011;47165;42.664;23.368;2023-11-18T07:32:04;2.15;;;0.70;;
61291;SDS011;47165;42.664;23.368;2023-11-18T07:34:31;0.98;;;0.65;;
61291;SDS011;47165;42.664;23.368;2023-11-18T07:36:58;1.55;;;0.85;;
61291;SDS011;47165;42.664;23.368;2023-11-18T07:39:24;6.60;;;0.93;;
61291;SDS011;47165;42.664;23.368;2023-11-18T07:42:08;1.55;;;0.70;;
61291;SDS011;47165;42.664;23.368;2023-11-18T07:44:35;0.82;;;0.60;;
61291;SDS011;47165;42.664;23.368;2023-11-18T07:47:01;1.60;;;1.27;;
61291;SDS011;47165;42.664;23.368;2023-11-18T07:49:26;1.10;;;0.70;;
61291;SDS011;47165;42.664;23.368;2023-11-18T07:51:52;0.70;;;0.70;;
61291;SDS011;47165;42.664;23.368;2023-11-18T07:54:18;1.02;;;0.70;;
61291;SDS011;47165;42.664;23.368;2023-11-18T07:56:44;2.25;;;0.93;;
61291;SDS011;47165;42.664;23.368;2023-11-18T07:59:12;1.33;;;0.85;;
61291;SDS011;47165;42.664;23.368;2023-11-18T08:01:41;0.82;;;0.82;;
61291;SDS011;47165;42.664;23.368;2023-11-18T08:04:09;0.95;;;0.85;;
61291;SDS011;47165;42.664;23.368;2023-11-18T08:06:35;0.80;;;0.80;;
61291;SDS011;47165;42.664;23.368;2023-11-18T08:09:02;0.63;;;0.63;;
61291;SDS011;47165;42.664;23.368;2023-11-18T08:11:31;1.15;;;0.90;;
61291;SDS011;47165;42.664;23.368;2023-11-18T08:13:56;1.90;;;1.15;;
61291;SDS011;47165;42.664;23.368;2023-11-18T08:16:26;1.13;;;0.77;;
61291;SDS011;47165;42.664;23.368;2023-11-18T08:18:52;1.20;;;0.60;;
61291;SDS011;47165;42.664;23.368;2023-11-18T08:21:18;1.60;;;0.73;;
61291;SDS011;47165;42.664;23.368;2023-11-18T08:23:44;3.40;;;0.90;;
61291;SDS011;47165;42.664;23.368;2023-11-18T08:26:11;1.45;;;0.63;;
61291;SDS011;47165;42.664;23.368;2023-11-18T08:28:37;3.33;;;0.45;;
61291;SDS011;47165;42.664;23.368;2023-11-18T08:31:02;0.63;;;0.60;;
61291;SDS011;47165;42.664;23.368;2023-11-18T08:33:28;0.60;;;0.60;;
61291;SDS011;47165;42.664;23.368;2023-11-18T08:35:55;2.53;;;1.30;;
61291;SDS011;47165;42.664;23.368;2023-11-18T08:38:22;1.80;;;1.00;;
61291;SDS011;47165;42.664;23.368;2023-11-18T08:40:47;1.05;;;0.73;;
61291;SDS011;47165;42.664;23.368;2023-11-18T08:43:14;1.75;;;1.38;;
61291;SDS011;47165;42.664;23.368;2023-11-18T08:45:41;1.65;;;0.95;;
61291;SDS011;47165;42.664;23.368;2023-11-18T08:48:21;1.02;;;0.60;;
61291;SDS011;47165;42.664;23.368;2023-11-18T08:50:48;0.43;;;0.43;;
61291;SDS011;47165;42.664;23.368;2023-11-18T08:53:15;1.75;;;1.20;;
61291;SDS011;47165;42.664;23.368;2023-11-18T08:55:43;0.93;;;0.85;;
61291;SDS011;47165;42.664;23.368;2023-11-18T08:58:12;1.92;;;1.15;;
61291;SDS011;47165;42.664;23.368;2023-11-18T09:00:49;1.58;;;1.00;;
61291;SDS011;47165;42.664;23.368;2023-11-18T09:05:57;0.95;;;0.52;;
61291;SDS011;47165;42.664;23.368;2023-11-18T09:08:27;0.85;;;0.52;;
61291;SDS011;47165;42.664;23.368;2023-11-18T09:11:02;1.15;;;1.00;;
61291;SDS011;47165;42.664;23.368;2023-11-18T09:13:32;1.75;;;0.60;;
61291;SDS011;47165;42.664;23.368;2023-11-18T09:16:00;0.85;;;0.85;;
61291;SDS011;47165;42.664;23.368;2023-11-18T09:18:29;2.75;;;1.00;;
61291;SDS011;47165;42.664;23.368;2023-11-18T09:20:55;6.18;;;0.63;;
61291;SDS011;47165;42.664;23.368;2023-11-18T09:23:28;2.90;;;1.10;;
61291;SDS011;47165;42.664;23.368;2023-11-18T09:25:54;1.23;;;1.08;;
61291;SDS011;47165;42.664;23.368;2023-11-18T09:28:20;0.70;;;0.70;;
61291;SDS011;47165;42.664;23.368;2023-11-18T09:30:49;1.42;;;1.13;;
61291;SDS011;47165;42.664;23.368;2023-11-18T09:33:17;0.20;;;0.13;;
61291;SDS011;47165;42.664;23.368;2023-11-18T09:35:54;1.13;;;1.02;;
61291;SDS011;47165;42.664;23.368;2023-11-18T09:38:30;1.25;;;1.00;;
61291;SDS011;47165;42.664;23.368;2023-11-18T09:41:00;0.60;;;0.60;;
61291;SDS011;47165;42.664;23.368;2023-11-18T09:43:30;1.10;;;1.00;;
61291;SDS011;47165;42.664;23.368;2023-11-18T09:46:21;7.47;;;2.55;;
61291;SDS011;47165;42.664;23.368;2023-11-18T09:51:50;1.15;;;1.05;;
61291;SDS011;47165;42.664;23.368;2023-11-18T10:02:47;1.73;;;1.13;;
61291;SDS011;47165;42.664;23.368;2023-11-18T10:05:15;2.55;;;0.98;;
61291;SDS011;47165;42.664;23.368;2023-11-18T10:07:45;2.33;;;1.40;;
61291;SDS011;47165;42.664;23.368;2023-11-18T10:10:12;1.38;;;1.15;;
61291;SDS011;47165;42.664;23.368;2023-11-18T10:12:44;2.78;;;1.58;;
61291;SDS011;47165;42.664;23.368;2023-11-18T10:15:12;1.50;;;1.15;;
61291;SDS011;47165;42.664;23.368;2023-11-18T10:17:43;0.50;;;0.50;;
61291;SDS011;47165;42.664;23.368;2023-11-18T10:20:58;1.30;;;1.20;;
61291;SDS011;47165;42.664;23.368;2023-11-18T10:23:19;1.35;;;1.00;;
61291;SDS011;47165;42.664;23.368;2023-11-18T10:28:29;1.27;;;1.08;;
61291;SDS011;47165;42.664;23.368;2023-11-18T10:31:00;2.33;;;1.48;;
61291;SDS011;47165;42.664;23.368;2023-11-18T10:33:40;1.60;;;1.40;;
61291;SDS011;47165;42.664;23.368;2023-11-18T10:36:18;0.80;;;0.80;;
61291;SDS011;47165;42.664;23.368;2023-11-18T10:38:49;1.48;;;1.27;;
61291;SDS011;47165;42.664;23.368;2023-11-18T10:41:17;0.98;;;0.75;;
61291;SDS011;47165;42.664;23.368;2023-11-18T10:43:43;1.38;;;0.65;;
61291;SDS011;47165;42.664;23.368;2023-11-18T10:46:11;0.65;;;0.65;;
61291;SDS011;47165;42.664;23.368;2023-11-18T10:48:45;1.00;;;0.85;;
61291;SDS011;47165;42.664;23.368;2023-11-18T10:51:16;1.25;;;0.98;;
61291;SDS011;47165;42.664;23.368;2023-11-18T10:53:46;2.03;;;1.13;;
61291;SDS011;47165;42.664;23.368;2023-11-18T10:56:23;2.83;;;1.50;;
61291;SDS011;47165;42.664;23.368;2023-11-18T10:58:52;1.52;;;0.90;;
61291;SDS011;47165;42.664;23.368;2023-11-18T11:01:31;0.80;;;0.50;;
61291;SDS011;47165;42.664;23.368;2023-11-18T11:04:07;2.47;;;1.20;;
61291;SDS011;47165;42.664;23.368;2023-11-18T11:06:43;1.35;;;1.25;;
61291;SDS011;47165;42.664;23.368;2023-11-18T11:09:17;0.93;;;0.90;;
61291;SDS011;47165;42.664;23.368;2023-11-18T11:11:48;1.05;;;0.95;;
61291;SDS011;47165;42.664;23.368;2023-11-18T11:14:18;1.75;;;1.08;;
61291;SDS011;47165;42.664;23.368;2023-11-18T11:16:56;1.42;;;1.20;;
61291;SDS011;47165;42.664;23.368;2023-11-18T11:19:38;1.00;;;0.90;;
61291;SDS011;47165;42.664;23.368;2023-11-18T11:22:22;1.10;;;1.00;;
61291;SDS011;47165;42.664;23.368;2023-11-18T11:27:34;1.58;;;0.90;;
61291;SDS011;47165;42.664;23.368;2023-11-18T11:30:20;0.80;;;0.80;;
61291;SDS011;47165;42.664;23.368;2023-11-18T11:32:50;2.53;;;0.90;;
61291;SDS011;47165;42.664;23.368;2023-11-18T11:35:27;1.30;;;0.90;;
61291;SDS011;47165;42.664;23.368;2023-11-18T11:37:56;0.52;;;0.52;;
61291;SDS011;47165;42.664;23.368;2023-11-18T11:40:30;2.22;;;1.15;;
61291;SDS011;47165;42.664;23.368;2023-11-18T11:42:56;1.63;;;1.08;;
61291;SDS011;47165;42.664;23.368;2023-11-18T11:45:23;1.42;;;1.15;;
61291;SDS011;47165;42.664;23.368;2023-11-18T11:47:53;1.05;;;0.80;;
61291;SDS011;47165;42.664;23.368;2023-11-18T11:51:25;3.28;;;1.63;;
61291;SDS011;47165;42.664;23.368;2023-11-18T11:53:39;0.73;;;0.73;;
61291;SDS011;47165;42.664;23.368;2023-11-18T11:56:11;1.55;;;1.10;;
61291;SDS011;47165;42.664;23.368;2023-11-18T11:58:46;1.30;;;1.02;;
61291;SDS011;47165;42.664;23.368;2023-11-18T12:01:26;0.95;;;0.80;;
61291;SDS011;47165;42.664;23.368;2023-11-18T12:03:57;1.38;;;0.80;;
61291;SDS011;47165;42.664;23.368;2023-11-18T12:06:26;1.88;;;1.23;;
61291;SDS011;47165;42.664;23.368;2023-11-18T12:08:53;0.15;;;0.15;;
61291;SDS011;47165;42.664;23.368;2023-11-18T12:11:20;0.32;;;0.32;;
61291;SDS011;47165;42.664;23.368;2023-11-18T12:14:02;1.13;;;0.90;;
61291;SDS011;47165;42.664;23.368;2023-11-18T12:19:46;1.77;;;1.23;;
61291;SDS011;47165;42.664;23.368;2023-11-18T12:22:17;2.20;;;1.30;;
61291;SDS011;47165;42.664;23.368;2023-11-18T12:41:02;2.47;;;1.10;;
61291;SDS011;47165;42.664;23.368;2023-11-18T12:48:42;2.10;;;1.83;;
61291;SDS011;47165;42.664;23.368;2023-11-18T12:51:10;2.75;;;1.30;;
61291;SDS011;47165;42.664;23.368;2023-11-18T12:53:45;3.80;;;1.30;;
61291;SDS011;47165;42.664;23.368;2023-11-18T12:56:19;1.88;;;0.98;;
61291;SDS011;47165;42.664;23.368;2023-11-18T12:58:45;1.52;;;1.27;;
61291;SDS011;47165;42.664;23.368;2023-11-18T13:01:12;1.58;;;1.10;;
61291;SDS011;47165;42.664;23.368;2023-11-18T13:03:40;1.23;;;1.13;;
61291;SDS011;47165;42.664;23.368;2023-11-18T13:06:09;2.00;;;1.08;;
61291;SDS011;47165;42.664;23.368;2023-11-18T13:08:37;0.98;;;0.93;;
61291;SDS011;47165;42.664;23.368;2023-11-18T13:11:03;2.78;;;1.55;;
61291;SDS011;47165;42.664;23.368;2023-11-18T13:13:33;2.03;;;1.50;;
61291;SDS011;47165;42.664;23.368;2023-11-18T13:16:02;1.17;;;1.02;;
61291;SDS011;47165;42.664;23.368;2023-11-18T13:18:35;1.48;;;1.35;;
61291;SDS011;47165;42.664;23.368;2023-11-18T13:21:14;2.65;;;1.65;;
61291;SDS011;47165;42.664;23.368;2023-11-18T13:23:45;2.20;;;1.90;;
61291;SDS011;47165;42.664;23.368;2023-11-18T13:26:15;2.55;;;2.08;;
61291;SDS011;47165;42.664;23.368;2023-11-18T13:28:41;3.55;;;1.70;;
61291;SDS011;47165;42.664;23.368;2023-11-18T13:31:09;1.73;;;1.52;;
61291;SDS011;47165;42.664;23.368;2023-11-18T13:33:38;1.75;;;1.65;;
61291;SDS011;47165;42.664;23.368;2023-11-18T13:36:05;2.40;;;2.20;;
61291;SDS011;47165;42.664;23.368;2023-11-18T13:38:31;2.63;;;2.08;;
61291;SDS011;47165;42.664;23.368;2023-11-18T13:40:57;4.00;;;2.58;;
61291;SDS011;47165;42.664;23.368;2023-11-18T13:43:23;3.05;;;2.50;;
61291;SDS011;47165;42.664;23.368;2023-11-18T13:45:52;3.15;;;1.95;;
61291;SDS011;47165;42.664;23.368;2023-11-18T13:48:18;2.78;;;1.88;;
61291;SDS011;47165;42.664;23.368;2023-11-18T13:50:44;3.08;;;2.20;;
61291;SDS011;47165;42.664;23.368;2023-11-18T13:53:10;2.97;;;1.17;;
61291;SDS011;47165;42.664;23.368;2023-11-18T13:55:36;1.05;;;0.95;;
61291;SDS011;47165;42.664;23.368;2023-11-18T13:58:04;1.45;;;1.35;;
61291;SDS011;47165;42.664;23.368;2023-11-18T14:00:30;3.85;;;2.33;;
61291;SDS011;47165;42.664;23.368;2023-11-18T14:02:57;1.85;;;1.50;;
61291;SDS011;47165;42.664;23.368;2023-11-18T14:05:23;5.60;;;2.80;;
61291;SDS011;47165;42.664;23.368;2023-11-18T14:07:51;2.08;;;1.20;;
61291;SDS011;47165;42.664;23.368;2023-11-18T14:10:17;2.63;;;2.00;;
61291;SDS011;47165;42.664;23.368;2023-11-18T14:15:27;1.98;;;1.13;;
61291;SDS011;47165;42.664;23.368;2023-11-18T14:17:57;2.75;;;2.35;;
61291;SDS011;47165;42.664;23.368;2023-11-18T14:20:23;1.27;;;1.13;;
61291;SDS011;47165;42.664;23.368;2023-11-18T14:22:53;4.70;;;2.85;;
61291;SDS011;47165;42.664;23.368;2023-11-18T14:25:19;2.45;;;1.77;;
61291;SDS011;47165;42.664;23.368;2023-11-18T14:27:48;3.20;;;2.38;;
61291;SDS011;47165;42.664;23.368;2023-11-18T14:30:16;2.17;;;1.58;;
61291;SDS011;47165;42.664;23.368;2023-11-18T14:32:42;3.83;;;2.42;;
61291;SDS011;47165;42.664;23.368;2023-11-18T14:35:08;2.83;;;1.38;;
61291;SDS011;47165;42.664;23.368;2023-11-18T14:37:39;4.57;;;2.30;;
61291;SDS011;47165;42.664;23.368;2023-11-18T14:40:13;2.55;;;1.70;;
61291;SDS011;47165;42.664;23.368;2023-11-18T14:42:44;2.92;;;2.47;;
61291;SDS011;47165;42.664;23.368;2023-11-18T14:45:11;4.03;;;2.80;;
61291;SDS011;47165;42.664;23.368;2023-11-18T14:47:41;3.10;;;2.40;;
61291;SDS011;47165;42.664;23.368;2023-11-18T14:50:09;4.38;;;2.85;;
61291;SDS011;47165;42.664;23.368;2023-11-18T14:52:46;3.65;;;2.83;;
61291;SDS011;47165;42.664;23.368;2023-11-18T14:55:13;3.92;;;2.75;;
61291;SDS011;47165;42.664;23.368;2023-11-18T14:57:42;2.72;;;2.30;;
61291;SDS011;47165;42.664;23.368;2023-11-18T15:00:09;3.15;;;2.75;;
61291;SDS011;47165;42.664;23.368;2023-11-18T15:02:48;2.35;;;2.10;;
61291;SDS011;47165;42.664;23.368;2023-11-18T15:05:15;2.03;;;1.77;;
61291;SDS011;47165;42.664;23.368;2023-11-18T15:10:16;4.85;;;3.00;;
61291;SDS011;47165;42.664;23.368;2023-11-18T15:12:50;3.47;;;2.60;;
61291;SDS011;47165;42.664;23.368;2023-11-18T15:15:22;3.35;;;2.85;;
61291;SDS011;47165;42.664;23.368;2023-11-18T15:17:56;3.03;;;2.72;;
61291;SDS011;47165;42.664;23.368;2023-11-18T15:20:23;2.60;;;2.35;;
61291;SDS011;47165;42.664;23.368;2023-11-18T15:22:49;2.60;;;2.03;;
61291;SDS011;47165;42.664;23.368;2023-11-18T15:25:15;2.90;;;2.35;;
61291;SDS011;47165;42.664;23.368;2023-11-18T15:27:45;5.18;;;2.50;;
61291;SDS011;47165;42.664;23.368;2023-11-18T15:30:12;4.57;;;3.78;;
61291;SDS011;47165;42.664;23.368;2023-11-18T15:32:42;5.28;;;3.05;;